Time;durP1;ratioP1;P1;durP2;ratioP2;P2;SDS_P1;SDS_P2;PMS_P1;PMS_P2;Temp;Humidity;BMP_temperature;BMP_pressure;BME280_temperature;BME280_humidity;BME280_pressure;Samples;Min_cycle;Max_cycle;Signal;HPM_P1;HPM_P2
2022/07/13 00:01:18;;;;;;;1.35;0.70;;;9.00;99.90;;;;;;5072280;28;20093;-77
2022/07/13 00:03:45;;;;;;;0.43;0.40;;;9.10;99.90;;;;;;5071612;28;20126;-79
2022/07/13 00:06:13;;;;;;;2.95;0.60;;;9.10;99.90;;;;;;5072045;28;20103;-75
2022/07/13 00:08:41;;;;;;;3.80;0.55;;;9.10;99.90;;;;;;5072028;28;20024;-77
2022/07/13 00:11:08;;;;;;;1.08;0.88;;;9.30;99.90;;;;;;5072260;28;20021;-77
2022/07/13 00:13:36;;;;;;;0.93;0.73;;;9.40;99.90;;;;;;5072070;28;20103;-77
2022/07/13 00:16:04;;;;;;;1.02;0.82;;;9.40;99.90;;;;;;5072031;28;20021;-74
2022/07/13 00:18:32;;;;;;;1.67;0.90;;;9.40;99.90;;;;;;5072498;28;20032;-78
2022/07/13 00:21:00;;;;;;;1.30;0.65;;;9.40;99.90;;;;;;5072463;28;20058;-78
2022/07/13 00:23:28;;;;;;;0.50;0.47;;;9.40;99.90;;;;;;5072701;28;20021;-78
2022/07/13 00:25:55;;;;;;;1.42;0.68;;;9.50;99.90;;;;;;5072424;28;20016;-76
2022/07/13 00:28:29;;;;;;;0.82;0.40;;;9.50;99.90;;;;;;5072309;28;20113;-80
2022/07/13 00:31:14;;;;;;;2.08;0.50;;;9.60;99.90;;;;;;5072500;28;20032;-78
2022/07/13 00:33:48;;;;;;;1.63;0.60;;;9.70;99.90;;;;;;5064886;28;20107;-79
2022/07/13 00:36:18;;;;;;;1.88;1.27;;;9.80;99.90;;;;;;5071194;28;20274;-75
2022/07/13 00:38:46;;;;;;;2.88;1.10;;;9.80;99.90;;;;;;5051133;28;20445;-75
2022/07/13 00:41:22;;;;;;;3.45;0.63;;;9.80;99.90;;;;;;5071197;28;20017;-76
2022/07/13 00:43:50;;;;;;;2.03;0.52;;;9.80;99.90;;;;;;5070840;28;20442;-76
2022/07/13 00:46:18;;;;;;;1.25;0.70;;;9.90;99.90;;;;;;5071703;28;20475;-77
2022/07/13 00:48:46;;;;;;;2.90;0.70;;;10.00;99.90;;;;;;5071453;28;20475;-75
2022/07/13 00:51:14;;;;;;;0.38;0.38;;;10.00;99.90;;;;;;5071809;28;20382;-77
2022/07/13 00:53:41;;;;;;;1.90;0.60;;;10.00;99.90;;;;;;5074941;28;20043;-70
2022/07/13 00:56:11;;;;;;;2.88;0.60;;;10.10;99.90;;;;;;5075846;28;20028;-76
2022/07/13 00:58:38;;;;;;;2.80;0.95;;;10.10;99.90;;;;;;5076004;28;20024;-77
2022/07/13 01:01:06;;;;;;;0.75;0.52;;;10.10;99.90;;;;;;5073300;28;20544;-76
2022/07/13 01:03:34;;;;;;;0.88;0.60;;;10.10;99.90;;;;;;5075525;28;20074;-76
2022/07/13 01:06:02;;;;;;;2.45;0.70;;;10.10;99.90;;;;;;5075683;28;20066;-77
2022/07/13 01:08:30;;;;;;;2.15;0.68;;;10.20;99.90;;;;;;5075709;28;20031;-76
2022/07/13 01:10:58;;;;;;;3.28;0.50;;;10.30;99.90;;;;;;5075962;28;20593;-78
2022/07/13 01:13:26;;;;;;;1.90;0.95;;;10.40;99.90;;;;;;5072689;28;20024;-75
2022/07/13 01:15:54;;;;;;;0.95;0.70;;;10.40;99.90;;;;;;5075069;28;20052;-76
2022/07/13 01:18:22;;;;;;;1.55;0.52;;;10.40;99.90;;;;;;5075577;28;20421;-77
2022/07/13 01:20:51;;;;;;;2.92;0.73;;;10.50;99.90;;;;;;5074612;28;20078;-77
2022/07/13 01:23:19;;;;;;;1.77;0.75;;;10.60;99.90;;;;;;5075417;28;20459;-76
2022/07/13 01:25:47;;;;;;;1.80;0.95;;;10.60;99.90;;;;;;5074923;28;20071;-75
2022/07/13 01:28:15;;;;;;;1.10;0.60;;;10.70;99.90;;;;;;5074171;28;20048;-76
2022/07/13 01:30:44;;;;;;;3.20;1.00;;;10.70;99.90;;;;;;5056872;28;20189;-78
2022/07/13 01:33:12;;;;;;;1.42;0.60;;;10.70;99.90;;;;;;5075232;28;20099;-77
2022/07/13 01:35:40;;;;;;;1.17;0.63;;;10.70;99.90;;;;;;5075301;28;20353;-73
2022/07/13 01:38:08;;;;;;;1.48;0.60;;;10.70;99.90;;;;;;5075106;28;20388;-77
2022/07/13 01:40:36;;;;;;;1.42;0.52;;;10.70;99.90;;;;;;5072619;28;20025;-73
2022/07/13 01:43:03;;;;;;;4.40;0.60;;;10.60;99.90;;;;;;5075264;28;20021;-77
2022/07/13 01:45:31;;;;;;;3.30;1.25;;;10.60;99.90;;;;;;5075117;28;20028;-76
2022/07/13 01:47:59;;;;;;;2.15;0.85;;;10.60;99.90;;;;;;5075057;28;20016;-78
2022/07/13 01:50:30;;;;;;;2.03;0.80;;;10.60;99.90;;;;;;5074960;28;20025;-77
2022/07/13 01:52:58;;;;;;;1.27;0.60;;;10.60;99.90;;;;;;5072638;28;20024;-77
2022/07/13 01:55:25;;;;;;;1.13;0.68;;;10.70;99.90;;;;;;5075006;28;20016;-71
2022/07/13 01:58:00;;;;;;;2.35;0.68;;;10.80;99.90;;;;;;5074464;28;20471;-76
2022/07/13 02:00:29;;;;;;;1.13;0.50;;;10.80;99.90;;;;;;5074620;28;20055;-77
2022/07/13 02:02:57;;;;;;;0.40;0.40;;;10.80;99.90;;;;;;5072524;28;20028;-77
2022/07/13 02:05:26;;;;;;;1.85;0.75;;;10.90;99.90;;;;;;5073963;28;20025;-77
2022/07/13 02:07:54;;;;;;;1.75;0.75;;;11.00;99.90;;;;;;5073939;28;20036;-76
2022/07/13 02:10:34;;;;;;;1.83;0.70;;;11.10;99.90;;;;;;5074253;28;20060;-77
2022/07/13 02:13:04;;;;;;;1.25;0.60;;;11.20;99.90;;;;;;5074342;28;20024;-75
2022/07/13 02:15:32;;;;;;;0.70;0.60;;;11.20;99.90;;;;;;5073968;28;20029;-77
2022/07/13 02:17:59;;;;;;;3.88;1.00;;;11.10;99.90;;;;;;5073834;28;20033;-77
2022/07/13 02:20:27;;;;;;;1.75;0.82;;;11.10;99.90;;;;;;5074457;28;20048;-79
2022/07/13 02:22:55;;;;;;;1.08;0.63;;;11.10;99.90;;;;;;5071374;28;20028;-77
2022/07/13 02:25:22;;;;;;;2.53;0.75;;;11.10;99.90;;;;;;5073866;28;20029;-74
2022/07/13 02:27:50;;;;;;;4.15;0.75;;;11.20;99.90;;;;;;5073691;28;20490;-76
2022/07/13 02:30:18;;;;;;;0.88;0.50;;;11.20;99.90;;;;;;5073804;28;20050;-72
2022/07/13 02:32:49;;;;;;;2.25;0.70;;;11.20;99.90;;;;;;5073567;28;20025;-76
2022/07/13 02:35:17;;;;;;;1.63;0.60;;;11.30;99.90;;;;;;5072476;28;20099;-77
2022/07/13 02:37:45;;;;;;;2.13;1.13;;;11.40;99.90;;;;;;5073575;28;20020;-76
2022/07/13 02:40:13;;;;;;;1.83;0.68;;;11.40;99.90;;;;;;5074122;28;20016;-72
2022/07/13 02:42:41;;;;;;;1.63;0.57;;;11.50;99.90;;;;;;5074069;28;20100;-75
2022/07/13 02:45:09;;;;;;;2.00;0.68;;;11.60;99.90;;;;;;5074116;28;20024;-76
2022/07/13 02:47:36;;;;;;;1.42;0.80;;;11.60;99.90;;;;;;5071166;28;20495;-72
2022/07/13 02:50:05;;;;;;;1.15;0.60;;;11.60;99.90;;;;;;5074019;28;20040;-77
2022/07/13 02:52:32;;;;;;;0.77;0.70;;;11.70;99.90;;;;;;5073584;28;20032;-77
2022/07/13 02:55:00;;;;;;;1.30;0.77;;;11.80;99.90;;;;;;5073742;28;20356;-76
2022/07/13 02:57:28;;;;;;;1.05;0.80;;;11.70;99.90;;;;;;5073427;28;20556;-76
2022/07/13 02:59:55;;;;;;;1.48;0.60;;;11.70;99.90;;;;;;5070697;28;20027;-76
2022/07/13 03:02:23;;;;;;;1.58;0.60;;;11.90;99.90;;;;;;5073488;28;20040;-77
2022/07/13 03:04:51;;;;;;;1.00;0.55;;;11.90;99.90;;;;;;5073531;28;20028;-68
2022/07/13 03:07:18;;;;;;;0.63;0.40;;;11.90;99.90;;;;;;5073666;28;20100;-76
2022/07/13 03:09:46;;;;;;;1.98;0.50;;;11.80;99.90;;;;;;5073328;28;20035;-76
2022/07/13 03:12:14;;;;;;;0.80;0.65;;;11.80;99.90;;;;;;5073223;28;20063;-75
2022/07/13 03:14:41;;;;;;;0.90;0.60;;;11.80;99.90;;;;;;5070693;28;20522;-75
2022/07/13 03:17:09;;;;;;;1.58;0.50;;;11.80;99.90;;;;;;5072312;28;20028;-76
2022/07/13 03:19:37;;;;;;;1.25;0.52;;;11.80;99.90;;;;;;5070840;28;20108;-77
2022/07/13 03:22:05;;;;;;;1.33;0.80;;;11.80;99.90;;;;;;5072415;28;20123;-77
2022/07/13 03:24:33;;;;;;;1.63;0.60;;;11.80;99.90;;;;;;5072947;28;20044;-76
2022/07/13 03:27:00;;;;;;;2.20;0.50;;;11.80;99.90;;;;;;5072519;28;20028;-77
2022/07/13 03:29:28;;;;;;;1.38;0.47;;;11.80;99.90;;;;;;5072949;28;20506;-74
2022/07/13 03:31:56;;;;;;;1.75;0.50;;;11.90;99.90;;;;;;5070445;28;20028;-76
2022/07/13 03:34:23;;;;;;;1.90;0.70;;;11.90;99.90;;;;;;5074831;28;20033;-76
2022/07/13 03:36:51;;;;;;;0.93;0.60;;;11.90;99.90;;;;;;5075374;28;20031;-74
2022/07/13 03:39:19;;;;;;;1.05;0.57;;;11.90;99.90;;;;;;5054173;28;20036;-75
2022/07/13 03:41:47;;;;;;;1.75;0.85;;;11.90;99.90;;;;;;5072670;28;20071;-76
2022/07/13 03:44:15;;;;;;;2.75;0.70;;;11.80;99.90;;;;;;5072791;28;20099;-76
2022/07/13 03:46:42;;;;;;;1.95;0.60;;;11.90;99.90;;;;;;5072711;28;20781;-76
2022/07/13 03:49:12;;;;;;;0.90;0.60;;;11.90;99.90;;;;;;5072502;28;20479;-77
2022/07/13 03:51:41;;;;;;;1.88;0.75;;;12.00;99.90;;;;;;5072093;28;20016;-76
2022/07/13 03:54:08;;;;;;;2.15;0.80;;;11.90;99.90;;;;;;5070053;28;20013;-76
2022/07/13 03:56:36;;;;;;;1.10;0.60;;;11.90;99.90;;;;;;5072709;28;20024;-76
2022/07/13 03:59:04;;;;;;;0.60;0.57;;;12.00;99.90;;;;;;5054352;28;20032;-76
2022/07/13 04:01:32;;;;;;;0.95;0.68;;;12.00;99.90;;;;;;5072259;28;20068;-76
2022/07/13 04:04:00;;;;;;;0.75;0.75;;;12.10;99.90;;;;;;5072620;28;20479;-77
2022/07/13 04:06:27;;;;;;;1.48;0.47;;;12.10;99.90;;;;;;5069650;28;20024;-76
2022/07/13 04:08:55;;;;;;;2.05;1.02;;;12.10;99.90;;;;;;5072356;28;20020;-75
2022/07/13 04:11:23;;;;;;;1.25;0.70;;;12.20;99.90;;;;;;5071835;28;20025;-73
2022/07/13 04:13:51;;;;;;;1.75;1.00;;;12.20;99.90;;;;;;5072459;28;20017;-74
2022/07/13 04:16:19;;;;;;;1.95;0.50;;;12.30;99.90;;;;;;5072570;28;20024;-75
2022/07/13 04:18:47;;;;;;;1.50;0.32;;;12.40;99.90;;;;;;5054094;28;20482;-77
2022/07/13 04:21:14;;;;;;;0.93;0.50;;;12.40;99.90;;;;;;5054544;28;20025;-77
2022/07/13 04:23:42;;;;;;;0.70;0.50;;;12.40;99.90;;;;;;5072319;28;20417;-77
2022/07/13 04:26:10;;;;;;;0.57;0.40;;;12.40;99.90;;;;;;5051994;28;20017;-76
2022/07/13 04:28:37;;;;;;;0.38;0.38;;;12.40;99.90;;;;;;5075440;28;20024;-71
2022/07/13 04:31:05;;;;;;;0.90;0.55;;;12.30;99.90;;;;;;5076181;28;20054;-75
2022/07/13 04:33:33;;;;;;;1.58;0.68;;;12.30;99.90;;;;;;5076127;28;20025;-78
2022/07/13 04:36:01;;;;;;;1.67;0.73;;;12.30;99.90;;;;;;5076244;28;20497;-76
2022/07/13 04:38:28;;;;;;;0.98;0.60;;;12.20;99.90;;;;;;5073771;28;20047;-78
2022/07/13 04:40:56;;;;;;;1.02;0.60;;;12.10;99.90;;;;;;5076201;28;20035;-75
2022/07/13 04:43:24;;;;;;;0.57;0.50;;;12.10;99.90;;;;;;5076283;28;20032;-77
2022/07/13 04:45:52;;;;;;;1.75;0.70;;;12.10;99.90;;;;;;5075088;28;20032;-75
2022/07/13 04:48:20;;;;;;;0.73;0.50;;;12.10;99.90;;;;;;5074778;28;20094;-76
2022/07/13 04:50:47;;;;;;;0.95;0.50;;;12.00;99.90;;;;;;5075894;28;20016;-76
2022/07/13 04:53:15;;;;;;;1.33;0.75;;;12.00;99.90;;;;;;5075065;28;20028;-77
2022/07/13 04:55:43;;;;;;;0.60;0.40;;;11.90;99.90;;;;;;5075072;28;20445;-76
2022/07/13 04:58:10;;;;;;;1.60;0.70;;;11.90;99.90;;;;;;5076121;28;20078;-75
2022/07/13 05:00:38;;;;;;;3.17;0.50;;;11.80;99.90;;;;;;5050493;28;20052;-75
2022/07/13 05:03:06;;;;;;;1.08;0.63;;;11.80;99.90;;;;;;5046939;28;20122;-77
2022/07/13 05:05:34;;;;;;;0.52;0.50;;;11.80;99.90;;;;;;5045375;28;20488;-76
2022/07/13 05:08:02;;;;;;;1.35;0.60;;;11.80;99.90;;;;;;5045158;28;20108;-76
2022/07/13 05:10:30;;;;;;;0.73;0.45;;;11.80;99.90;;;;;;5042323;28;20013;-68
2022/07/13 05:13:01;;;;;;;3.72;0.80;;;11.80;99.90;;;;;;5040170;28;20027;-75
2022/07/13 05:15:29;;;;;;;2.05;0.77;;;11.80;99.90;;;;;;5036144;28;20101;-76
2022/07/13 05:17:56;;;;;;;1.50;0.60;;;11.80;99.90;;;;;;5036221;28;20083;-76
2022/07/13 05:20:24;;;;;;;1.17;0.50;;;11.80;99.90;;;;;;5035841;28;20043;-76
2022/07/13 05:22:52;;;;;;;0.82;0.52;;;11.80;99.90;;;;;;5036343;28;20373;-76
2022/07/13 05:25:20;;;;;;;0.88;0.50;;;11.70;99.90;;;;;;5036321;28;20022;-69
2022/07/13 05:27:48;;;;;;;0.82;0.50;;;11.70;99.90;;;;;;5035695;28;20029;-77
2022/07/13 05:30:16;;;;;;;2.40;0.40;;;11.60;99.90;;;;;;5035746;28;20577;-76
2022/07/13 05:32:44;;;;;;;1.48;0.55;;;11.60;99.90;;;;;;5035903;28;20037;-76
2022/07/13 05:35:11;;;;;;;1.02;0.50;;;11.60;99.90;;;;;;5033884;28;20025;-78
2022/07/13 05:37:39;;;;;;;1.33;0.70;;;11.60;99.90;;;;;;5034629;28;20500;-76
2022/07/13 05:40:07;;;;;;;1.10;0.50;;;11.60;99.90;;;;;;5034619;28;20571;-78
2022/07/13 05:42:35;;;;;;;0.70;0.70;;;11.60;99.90;;;;;;5035848;28;20383;-78
2022/07/13 05:45:03;;;;;;;0.82;0.52;;;11.50;99.90;;;;;;5033469;28;20024;-71
2022/07/13 05:47:31;;;;;;;1.25;0.60;;;11.50;99.90;;;;;;5035292;28;20026;-75
2022/07/13 05:49:59;;;;;;;1.40;0.60;;;11.50;99.90;;;;;;5035581;28;20100;-75
2022/07/13 05:52:26;;;;;;;2.25;0.82;;;11.40;99.90;;;;;;5035275;28;20503;-79
2022/07/13 05:54:54;;;;;;;1.92;0.98;;;11.40;99.90;;;;;;5035140;28;20060;-76
2022/07/13 05:57:22;;;;;;;1.08;0.60;;;11.40;99.90;;;;;;5035592;28;20030;-71
2022/07/13 05:59:49;;;;;;;0.70;0.55;;;11.40;99.90;;;;;;5035132;28;20067;-69
2022/07/13 06:02:17;;;;;;;1.02;0.47;;;11.50;99.90;;;;;;5054575;28;20075;-76
2022/07/13 06:04:46;;;;;;;1.20;0.60;;;11.60;99.90;;;;;;5050677;28;20589;-70
2022/07/13 06:07:13;;;;;;;1.77;0.70;;;11.60;99.90;;;;;;5051328;28;20139;-68
2022/07/13 06:09:41;;;;;;;0.93;0.60;;;11.60;99.90;;;;;;5055284;28;20395;-74
2022/07/13 06:12:09;;;;;;;1.42;0.85;;;11.60;99.90;;;;;;5054862;28;20020;-75
2022/07/13 06:14:36;;;;;;;0.80;0.55;;;11.60;99.90;;;;;;5055280;28;20398;-69
2022/07/13 06:17:04;;;;;;;0.65;0.47;;;11.60;99.90;;;;;;5055061;28;20032;-69
2022/07/13 06:19:33;;;;;;;1.15;0.65;;;11.60;99.90;;;;;;5054820;28;20033;-70
2022/07/13 06:22:01;;;;;;;1.13;0.70;;;11.60;99.90;;;;;;5054556;28;20036;-71
2022/07/13 06:24:28;;;;;;;0.82;0.40;;;11.50;99.90;;;;;;5055068;28;20104;-77
2022/07/13 06:26:56;;;;;;;1.00;0.90;;;11.50;99.90;;;;;;5054391;28;20029;-78
2022/07/13 06:29:24;;;;;;;2.38;1.65;;;11.40;99.90;;;;;;5053499;28;20021;-75
2022/07/13 06:31:51;;;;;;;5.35;1.58;;;11.40;99.90;;;;;;5054523;28;20060;-71
2022/07/13 06:34:19;;;;;;;3.47;2.28;;;11.40;99.90;;;;;;5054887;28;20558;-80
2022/07/13 06:36:47;;;;;;;5.90;3.30;;;11.30;99.90;;;;;;5054738;28;20494;-79
2022/07/13 06:39:15;;;;;;;1.23;0.98;;;11.30;99.90;;;;;;5054536;28;20080;-76
2022/07/13 06:41:42;;;;;;;1.27;1.00;;;11.30;99.90;;;;;;5054539;28;20112;-73
2022/07/13 06:44:10;;;;;;;1.13;1.02;;;11.20;99.90;;;;;;5054581;28;20033;-73
2022/07/13 06:46:38;;;;;;;1.85;0.90;;;11.20;99.90;;;;;;5053927;28;20411;-73
2022/07/13 06:49:05;;;;;;;1.52;0.90;;;11.20;99.90;;;;;;5053887;28;20034;-73
2022/07/13 06:51:33;;;;;;;0.98;0.73;;;11.20;99.90;;;;;;5053844;28;20099;-73
2022/07/13 06:54:01;;;;;;;1.08;0.80;;;11.10;99.90;;;;;;5054017;28;20410;-73
2022/07/13 06:56:29;;;;;;;0.93;0.60;;;11.10;99.90;;;;;;5054380;28;20021;-72
2022/07/13 06:58:56;;;;;;;2.63;0.80;;;11.10;99.90;;;;;;5054175;28;20480;-72
2022/07/13 07:01:24;;;;;;;0.93;0.65;;;11.10;99.90;;;;;;5066544;28;20060;-72
2022/07/13 07:03:52;;;;;;;0.90;0.80;;;11.20;99.90;;;;;;5074021;28;20025;-72
2022/07/13 07:06:20;;;;;;;1.55;1.30;;;11.10;99.90;;;;;;5074104;28;20025;-72
2022/07/13 07:08:48;;;;;;;1.95;0.90;;;11.10;99.90;;;;;;5074217;28;20072;-72
2022/07/13 07:11:16;;;;;;;1.67;0.80;;;11.20;99.90;;;;;;5074115;28;20028;-72
2022/07/13 07:13:43;;;;;;;0.65;0.60;;;11.10;99.90;;;;;;5073789;28;20536;-72
2022/07/13 07:16:11;;;;;;;1.70;1.10;;;11.10;99.90;;;;;;5073937;28;20028;-72
2022/07/13 07:18:39;;;;;;;2.28;1.50;;;11.10;99.90;;;;;;5073891;28;20123;-72
2022/07/13 07:21:06;;;;;;;1.30;0.82;;;11.10;99.90;;;;;;5073766;28;20059;-72
2022/07/13 07:23:34;;;;;;;0.50;0.50;;;11.10;99.90;;;;;;5073380;28;20052;-72
2022/07/13 07:26:02;;;;;;;1.95;1.00;;;11.10;99.90;;;;;;5073132;28;20063;-71
2022/07/13 07:28:30;;;;;;;2.10;0.82;;;11.00;99.90;;;;;;5055832;28;20458;-72
2022/07/13 07:30:57;;;;;;;3.10;1.10;;;11.00;99.90;;;;;;5073548;28;20021;-72
2022/07/13 07:33:25;;;;;;;0.57;0.43;;;11.00;99.90;;;;;;5073128;28;20029;-71
2022/07/13 07:35:53;;;;;;;1.40;0.90;;;11.00;99.90;;;;;;5073418;28;20039;-72
2022/07/13 07:38:21;;;;;;;1.00;0.75;;;11.00;99.90;;;;;;5073155;28;20033;-72
2022/07/13 07:40:48;;;;;;;1.27;0.80;;;11.00;99.90;;;;;;5073332;28;20395;-72
2022/07/13 07:43:16;;;;;;;1.13;0.82;;;11.00;99.90;;;;;;5072725;28;20032;-76
2022/07/13 07:45:44;;;;;;;1.38;0.60;;;10.90;99.90;;;;;;5073453;28;20020;-72
2022/07/13 07:48:11;;;;;;;1.70;0.95;;;10.80;99.90;;;;;;5073467;28;20027;-73
2022/07/13 07:50:39;;;;;;;1.20;0.98;;;10.70;99.90;;;;;;5073212;28;20025;-73
2022/07/13 07:53:07;;;;;;;1.40;1.05;;;10.70;99.90;;;;;;5073079;28;20479;-73
2022/07/13 07:55:34;;;;;;;1.08;0.90;;;10.60;99.90;;;;;;5073291;28;20065;-73
2022/07/13 07:58:02;;;;;;;1.40;0.93;;;10.70;99.90;;;;;;5073238;28;20402;-72
2022/07/13 08:00:30;;;;;;;0.95;0.82;;;10.70;99.90;;;;;;5073112;28;20112;-72
2022/07/13 08:03:02;;;;;;;1.25;1.13;;;10.70;99.90;;;;;;5072187;28;20475;-72
2022/07/13 08:05:30;;;;;;;2.42;0.63;;;10.70;99.90;;;;;;5073169;28;20104;-72
2022/07/13 08:07:58;;;;;;;1.73;0.85;;;10.70;99.90;;;;;;5072475;28;20034;-72
2022/07/13 08:10:26;;;;;;;1.17;0.77;;;10.70;99.90;;;;;;5072559;28;20020;-72
2022/07/13 08:12:54;;;;;;;1.10;0.70;;;10.70;99.90;;;;;;5072398;28;20035;-72
2022/07/13 08:15:22;;;;;;;1.25;1.00;;;10.70;99.90;;;;;;5072936;28;20066;-72
2022/07/13 08:17:50;;;;;;;3.08;2.47;;;10.60;99.90;;;;;;5064429;28;20119;-72
2022/07/13 08:20:18;;;;;;;2.47;1.60;;;10.60;99.90;;;;;;5052627;28;20020;-72
2022/07/13 08:22:46;;;;;;;2.03;1.42;;;10.70;99.90;;;;;;5071283;28;20472;-72
2022/07/13 08:25:14;;;;;;;1.63;1.00;;;10.70;99.90;;;;;;5072142;28;20554;-72
2022/07/13 08:27:41;;;;;;;1.08;0.90;;;10.70;99.90;;;;;;5058575;28;20016;-72
2022/07/13 08:30:13;;;;;;;1.35;0.85;;;10.70;99.90;;;;;;5072586;28;20043;-72
2022/07/13 08:32:42;;;;;;;1.65;1.00;;;10.70;99.90;;;;;;5072516;28;20024;-72
2022/07/13 08:40:44;;;;;;;2.17;1.17;;;10.80;99.90;;;;;;5073121;28;20047;-72
2022/07/13 08:43:12;;;;;;;2.83;1.25;;;10.80;99.90;;;;;;5072353;28;20356;-72
2022/07/13 08:45:41;;;;;;;2.22;1.00;;;10.80;99.90;;;;;;5072128;28;20024;-73
2022/07/13 08:48:26;;;;;;;1.58;1.08;;;10.90;99.90;;;;;;5067736;28;20017;-72
2022/07/13 08:50:54;;;;;;;2.35;1.10;;;10.80;99.90;;;;;;5070216;28;20021;-72
2022/07/13 08:53:22;;;;;;;2.28;1.13;;;10.70;99.90;;;;;;5069617;28;20024;-72
2022/07/13 08:55:51;;;;;;;2.63;1.20;;;10.70;99.90;;;;;;5069750;28;20025;-72
2022/07/13 08:58:19;;;;;;;2.45;1.48;;;10.60;99.90;;;;;;5071507;28;20050;-72
2022/07/13 09:00:47;;;;;;;1.92;1.35;;;10.60;99.90;;;;;;5068828;28;20036;-72
2022/07/13 09:03:14;;;;;;;1.88;1.20;;;10.60;99.90;;;;;;5067977;28;20476;-72
2022/07/13 09:05:43;;;;;;;2.00;1.27;;;10.50;99.90;;;;;;5070315;28;20078;-72
2022/07/13 09:08:13;;;;;;;2.58;1.20;;;10.60;99.90;;;;;;5066145;28;20024;-72
2022/07/13 09:11:00;;;;;;;1.80;1.38;;;10.50;99.90;;;;;;5052223;28;20082;-72
2022/07/13 09:13:40;;;;;;;1.98;1.20;;;10.50;99.90;;;;;;5052141;28;20025;-72
2022/07/13 09:16:22;;;;;;;3.13;1.73;;;10.50;99.90;;;;;;5055074;28;20108;-72
2022/07/13 09:18:54;;;;;;;2.72;1.10;;;10.40;99.90;;;;;;5054478;28;20025;-72
2022/07/13 09:21:23;;;;;;;1.30;0.93;;;10.40;99.90;;;;;;5054684;28;20410;-72
2022/07/13 09:23:56;;;;;;;1.90;1.20;;;10.40;99.90;;;;;;5054570;28;20052;-72
2022/07/13 09:26:44;;;;;;;2.22;1.77;;;10.50;99.90;;;;;;5054495;28;20039;-72
2022/07/13 09:29:13;;;;;;;1.58;1.20;;;10.40;99.90;;;;;;5054478;28;20083;-72
2022/07/13 09:31:55;;;;;;;2.75;1.52;;;10.50;99.90;;;;;;5054793;28;20021;-72
2022/07/13 09:34:52;;;;;;;2.20;1.30;;;10.40;99.90;;;;;;5054578;28;20029;-72
2022/07/13 09:37:21;;;;;;;1.80;1.13;;;10.40;99.90;;;;;;5054501;28;20041;-74
2022/07/13 09:40:09;;;;;;;2.28;1.55;;;10.40;99.90;;;;;;5054330;28;20506;-71
2022/07/13 09:42:41;;;;;;;2.22;1.10;;;10.40;99.90;;;;;;5054900;28;20100;-71
2022/07/13 09:47:58;;;;;;;2.03;1.50;;;10.40;99.90;;;;;;5054826;28;20031;-71
2022/07/13 09:50:38;;;;;;;3.58;1.83;;;10.50;99.90;;;;;;5060948;28;20395;-71
2022/07/13 09:53:31;;;;;;;4.22;1.20;;;10.50;99.90;;;;;;5064424;28;20021;-71
2022/07/13 09:56:01;;;;;;;1.83;1.27;;;10.40;99.90;;;;;;5062957;28;20021;-71
2022/07/13 09:58:32;;;;;;;3.58;1.42;;;10.40;99.90;;;;;;5056861;28;20108;-71
2022/07/13 10:01:03;;;;;;;2.28;1.50;;;10.30;99.90;;;;;;5053956;28;20041;-70
2022/07/13 10:03:31;;;;;;;3.63;2.35;;;10.30;99.90;;;;;;5054187;28;20044;-70
2022/07/13 10:06:01;;;;;;;1.88;1.33;;;10.30;99.90;;;;;;5054085;28;20426;-72
2022/07/13 10:08:30;;;;;;;1.85;1.40;;;10.30;99.90;;;;;;5054025;28;20039;-72
2022/07/13 10:10:58;;;;;;;2.55;1.52;;;10.30;99.90;;;;;;5055807;28;20012;-72
2022/07/13 10:13:26;;;;;;;1.85;1.50;;;10.30;99.90;;;;;;5053362;28;20066;-72
2022/07/13 10:15:53;;;;;;;1.90;1.65;;;10.30;99.90;;;;;;5053788;28;20020;-72
2022/07/13 10:18:30;;;;;;;1.83;1.40;;;10.30;99.90;;;;;;5053773;28;20094;-71
2022/07/13 10:21:17;;;;;;;2.17;1.75;;;10.30;99.90;;;;;;5053811;28;20071;-72
2022/07/13 10:23:45;;;;;;;3.97;1.88;;;10.30;99.90;;;;;;5053688;28;20048;-72
2022/07/13 10:26:19;;;;;;;4.78;1.77;;;10.30;99.90;;;;;;5052473;28;20487;-71
2022/07/13 10:29:05;;;;;;;3.05;2.00;;;10.20;99.90;;;;;;5055410;28;20013;-71
2022/07/13 10:31:36;;;;;;;2.47;1.70;;;10.20;99.90;;;;;;5053374;28;20075;-71
2022/07/13 10:34:05;;;;;;;2.20;1.70;;;10.10;99.90;;;;;;5053053;28;20112;-71
2022/07/13 10:36:52;;;;;;;3.40;2.22;;;10.00;99.90;;;;;;5053188;28;20032;-71
2022/07/13 10:39:24;;;;;;;3.25;1.98;;;10.00;99.90;;;;;;5035431;28;20123;-71
2022/07/13 10:42:03;;;;;;;1.70;1.50;;;9.90;99.90;;;;;;5053158;28;20017;-72
2022/07/13 10:44:39;;;;;;;3.45;2.33;;;9.90;99.90;;;;;;5053514;28;20040;-71
2022/07/13 10:47:09;;;;;;;4.05;2.22;;;9.90;99.90;;;;;;5053457;28;20028;-71
2022/07/13 10:49:47;;;;;;;2.53;2.03;;;9.80;99.90;;;;;;5052682;28;20025;-71
2022/07/13 10:52:21;;;;;;;3.15;2.22;;;9.80;99.90;;;;;;5053227;28;20017;-72
2022/07/13 10:57:36;;;;;;;3.80;2.13;;;9.80;99.90;;;;;;5057163;28;20032;-71
2022/07/13 11:03:01;;;;;;;3.55;2.53;;;9.80;99.90;;;;;;5052466;28;20014;-71
2022/07/13 11:05:33;;;;;;;3.22;1.88;;;9.80;99.90;;;;;;5052657;28;20028;-73
2022/07/13 11:08:13;;;;;;;2.47;2.05;;;9.80;99.90;;;;;;5052509;28;20063;-72
2022/07/13 11:10:41;;;;;;;4.00;2.38;;;9.70;99.90;;;;;;5052817;28;20526;-71
2022/07/13 11:13:14;;;;;;;3.13;1.90;;;9.70;99.90;;;;;;5052190;28;20114;-72
2022/07/13 11:15:53;;;;;;;6.00;2.25;;;9.70;99.90;;;;;;5052714;28;20036;-71
2022/07/13 11:18:24;;;;;;;2.13;1.92;;;9.60;99.90;;;;;;5052548;28;20430;-72
2022/07/13 11:21:03;;;;;;;2.97;2.47;;;9.60;99.90;;;;;;5052502;28;20021;-71
2022/07/13 11:27:00;;;;;;;4.70;2.30;;;9.40;99.90;;;;;;5052481;28;20383;-71
2022/07/13 11:29:40;;;;;;;3.28;2.17;;;9.40;99.90;;;;;;5052436;28;20059;-72
2022/07/13 11:32:08;;;;;;;3.33;2.30;;;9.30;99.90;;;;;;5052093;28;20017;-72
2022/07/13 11:34:37;;;;;;;3.72;2.22;;;9.30;99.90;;;;;;5052261;28;20023;-72
2022/07/13 11:37:06;;;;;;;4.07;2.20;;;9.30;99.90;;;;;;5052239;28;20029;-72
2022/07/13 11:39:34;;;;;;;2.72;2.28;;;9.30;99.90;;;;;;5052584;28;20090;-72
2022/07/13 11:42:06;;;;;;;2.65;2.38;;;9.20;99.90;;;;;;5053767;28;20109;-72
2022/07/13 11:44:34;;;;;;;2.42;2.03;;;9.20;99.90;;;;;;5051813;28;20032;-73
2022/07/13 11:47:07;;;;;;;2.40;2.10;;;9.20;99.90;;;;;;5052171;28;20027;-72
2022/07/13 11:49:49;;;;;;;2.38;1.92;;;9.20;99.90;;;;;;5052023;28;20017;-72
2022/07/13 11:52:24;;;;;;;3.50;2.00;;;9.20;99.90;;;;;;5051928;28;20075;-72
2022/07/13 11:55:02;;;;;;;3.33;2.17;;;9.20;99.90;;;;;;5051716;28;20021;-72
2022/07/13 11:57:31;;;;;;;2.60;2.00;;;9.30;99.90;;;;;;5051758;28;20027;-72
2022/07/13 12:00:05;;;;;;;4.35;2.13;;;9.20;99.90;;;;;;5051200;28;20086;-72
2022/07/13 12:02:34;;;;;;;2.80;2.22;;;9.20;99.90;;;;;;5052063;28;20024;-72
2022/07/13 12:05:01;;;;;;;2.35;2.10;;;9.20;99.90;;;;;;5052041;28;20029;-72
2022/07/13 12:07:32;;;;;;;3.22;2.20;;;9.30;99.90;;;;;;5052103;28;20048;-72
2022/07/13 12:10:05;;;;;;;4.57;2.50;;;9.30;99.90;;;;;;5052622;28;20049;-72
2022/07/13 12:12:40;;;;;;;3.13;2.25;;;9.30;99.90;;;;;;5052313;28;20027;-72
2022/07/13 12:15:09;;;;;;;3.08;2.25;;;9.30;99.90;;;;;;5052220;28;20438;-72
2022/07/13 12:17:52;;;;;;;3.17;2.35;;;9.30;99.90;;;;;;5051429;28;20021;-72
2022/07/13 12:20:22;;;;;;;2.55;2.13;;;9.30;99.90;;;;;;5051918;28;20025;-71
2022/07/13 12:22:57;;;;;;;4.45;2.05;;;9.30;99.90;;;;;;5053670;28;20044;-71
2022/07/13 12:25:35;;;;;;;2.13;1.60;;;9.40;99.90;;;;;;5061026;28;20506;-71
2022/07/13 12:28:06;;;;;;;3.03;2.47;;;9.30;99.90;;;;;;5062516;28;20047;-72
2022/07/13 12:30:35;;;;;;;4.15;2.50;;;9.30;99.90;;;;;;5051475;28;20052;-72
2022/07/13 12:33:05;;;;;;;2.55;1.77;;;9.30;99.90;;;;;;5033571;28;20434;-72
2022/07/13 12:35:35;;;;;;;2.63;1.73;;;9.30;99.90;;;;;;5051477;28;20021;-72
2022/07/13 12:38:12;;;;;;;1.98;1.67;;;9.30;99.90;;;;;;5051716;28;20392;-72
2022/07/13 12:40:43;;;;;;;2.47;1.70;;;9.30;99.90;;;;;;5051445;28;20025;-71
2022/07/13 12:43:31;;;;;;;2.13;1.65;;;9.30;99.90;;;;;;5053368;28;20033;-72
2022/07/13 12:46:04;;;;;;;2.33;1.63;;;9.30;99.90;;;;;;5060427;28;20056;-71
2022/07/13 12:48:34;;;;;;;2.00;1.80;;;9.40;99.90;;;;;;5063908;28;20024;-71
2022/07/13 12:51:03;;;;;;;1.50;1.40;;;9.40;99.90;;;;;;5067013;28;20100;-72
2022/07/13 12:53:52;;;;;;;2.03;1.50;;;9.40;99.90;;;;;;5054966;28;20117;-71
2022/07/13 12:56:21;;;;;;;2.28;1.58;;;9.50;99.90;;;;;;5068216;28;20078;-71
2022/07/13 12:58:51;;;;;;;2.03;1.63;;;9.40;99.90;;;;;;5065311;28;20479;-71
2022/07/13 13:01:39;;;;;;;1.90;1.65;;;9.30;99.90;;;;;;5065904;28;20045;-71
2022/07/13 13:04:11;;;;;;;1.63;1.50;;;9.40;99.90;;;;;;5066442;28;20021;-71
2022/07/13 13:06:40;;;;;;;1.52;1.33;;;9.40;99.90;;;;;;5059512;28;20071;-71
2022/07/13 13:09:14;;;;;;;1.80;1.45;;;9.40;99.90;;;;;;5055218;28;20020;-71
2022/07/13 13:11:43;;;;;;;1.67;1.30;;;9.30;99.90;;;;;;5057494;28;20071;-71
2022/07/13 13:14:11;;;;;;;2.60;1.50;;;9.30;99.90;;;;;;5055101;28;20017;-72
2022/07/13 13:16:40;;;;;;;2.50;1.70;;;9.30;99.90;;;;;;5055129;28;20021;-71
2022/07/13 13:19:09;;;;;;;2.53;1.60;;;9.40;99.90;;;;;;5059733;28;20033;-71
2022/07/13 13:21:37;;;;;;;3.13;1.38;;;9.40;99.90;;;;;;5058039;28;20533;-72